Time;durP1;ratioP1;P1;durP2;ratioP2;P2;SDS_P1;SDS_P2;PMS_P1;PMS_P2;Temp;Humidity;BMP_temperature;BMP_pressure;BME280_temperature;BME280_humidity;BME280_pressure;Samples;Min_cycle;Max_cycle;Signal;HPM_P1;HPM_P2
2023/08/06 00:01:29;;;;;;;5.32;3.42;;;;;;;15.05;100.00;96081.00;4982094;28;20038;-69
2023/08/06 00:03:54;;;;;;;5.93;3.90;;;;;;;15.04;100.00;96082.22;4984895;28;20049;-68
2023/08/06 00:06:20;;;;;;;6.95;3.67;;;;;;;15.03;100.00;96077.88;4980528;28;20034;-68
2023/08/06 00:08:45;;;;;;;7.93;3.58;;;;;;;14.95;100.00;96074.44;4984368;28;20092;-68
2023/08/06 00:11:10;;;;;;;6.07;4.20;;;;;;;14.84;100.00;96069.03;4979267;28;20061;-68
2023/08/06 00:13:36;;;;;;;5.43;4.07;;;;;;;14.82;100.00;96071.41;4984120;28;20074;-68
2023/08/06 00:16:13;;;;;;;9.40;4.10;;;;;;;14.91;100.00;96068.19;4986045;28;20069;-67
2023/08/06 00:18:39;;;;;;;7.35;3.80;;;;;;;14.96;100.00;96070.47;4997970;28;20046;-68
2023/08/06 00:21:05;;;;;;;5.05;3.45;;;;;;;14.93;100.00;96054.75;4992446;28;20122;-68
2023/08/06 00:23:30;;;;;;;5.38;3.42;;;;;;;14.83;100.00;96061.94;4983675;28;20046;-67
2023/08/06 00:25:56;;;;;;;4.68;3.55;;;;;;;14.83;100.00;96064.69;4985650;28;20038;-70
2023/08/06 00:28:21;;;;;;;5.55;3.75;;;;;;;14.86;100.00;96063.13;4978904;28;20137;-67
2023/08/06 00:30:52;;;;;;;4.28;3.08;;;;;;;14.96;100.00;96055.91;4983828;28;20108;-69
2023/08/06 00:33:18;;;;;;;4.38;3.30;;;;;;;14.99;100.00;96058.63;4979490;28;20043;-68
2023/08/06 00:35:43;;;;;;;5.32;3.75;;;;;;;14.84;100.00;96060.75;4985260;28;20495;-69
2023/08/06 00:38:08;;;;;;;5.53;3.20;;;;;;;14.83;100.00;96052.91;4978761;28;20042;-69
2023/08/06 00:40:34;;;;;;;5.82;3.45;;;;;;;14.80;100.00;96048.19;4983799;28;20137;-69
2023/08/06 00:42:59;;;;;;;5.65;3.45;;;;;;;14.63;100.00;96039.72;4982717;28;20046;-69
2023/08/06 00:45:25;;;;;;;4.28;3.38;;;;;;;14.62;100.00;96040.09;4979749;28;20104;-71
2023/08/06 00:47:51;;;;;;;4.68;3.47;;;;;;;14.62;100.00;96043.66;4985057;28;20092;-70
2023/08/06 00:50:17;;;;;;;6.20;3.92;;;;;;;14.47;100.00;96031.19;4979014;28;20563;-69
2023/08/06 00:52:43;;;;;;;7.32;4.13;;;;;;;14.34;100.00;96020.66;4983905;28;20050;-69
2023/08/06 00:55:09;;;;;;;5.95;3.67;;;;;;;14.22;100.00;96039.66;4977395;28;20046;-68
2023/08/06 00:57:35;;;;;;;5.68;3.90;;;;;;;14.13;100.00;96031.88;4982836;28;20100;-68
2023/08/06 01:00:00;;;;;;;6.60;4.40;;;;;;;14.00;100.00;96026.06;4983416;28;20458;-69
2023/08/06 01:02:26;;;;;;;5.85;4.00;;;;;;;14.02;100.00;96022.91;4978835;28;20050;-68
2023/08/06 01:04:51;;;;;;;6.15;4.15;;;;;;;14.01;100.00;96021.34;4984579;28;20399;-68
2023/08/06 01:07:35;;;;;;;6.20;4.00;;;;;;;13.94;100.00;96019.44;4978336;28;20042;-68
2023/08/06 01:10:16;;;;;;;8.40;4.70;;;;;;;13.79;100.00;96016.00;4983500;28;20046;-69
2023/08/06 01:12:51;;;;;;;7.50;4.47;;;;;;;13.70;100.00;96013.72;4982767;28;20523;-69
2023/08/06 01:15:21;;;;;;;7.40;4.20;;;;;;;13.72;100.00;96019.59;4978974;28;20054;-68
2023/08/06 01:17:48;;;;;;;4.95;3.53;;;;;;;13.79;100.00;96016.00;4983099;28;20038;-69
2023/08/06 01:20:13;;;;;;;4.80;3.80;;;;;;;13.87;100.00;96014.00;4979269;28;20395;-69
2023/08/06 01:22:39;;;;;;;5.45;3.63;;;;;;;13.80;100.00;96012.06;4982303;28;20047;-68
2023/08/06 01:25:05;;;;;;;7.25;3.85;;;;;;;13.74;100.00;96017.22;4979791;28;20077;-69
2023/08/06 01:27:38;;;;;;;5.60;3.80;;;;;;;13.62;100.00;96003.94;4985102;28;20045;-69
2023/08/06 01:30:15;;;;;;;8.52;3.60;;;;;;;13.49;100.00;96014.63;4975934;28;20050;-69
2023/08/06 01:32:46;;;;;;;4.57;3.55;;;;;;;13.38;100.00;96022.94;4982610;28;20043;-68
2023/08/06 01:35:15;;;;;;;6.88;3.97;;;;;;;13.25;100.00;96015.53;4978518;28;20053;-68
2023/08/06 01:37:41;;;;;;;4.78;3.58;;;;;;;13.21;100.00;96021.03;4988504;28;20035;-68
2023/08/06 01:40:14;;;;;;;5.82;4.63;;;;;;;13.26;100.00;96006.88;4982241;28;20522;-68
2023/08/06 01:42:39;;;;;;;6.35;4.50;;;;;;;13.18;100.00;96008.09;4982653;28;20122;-69
2023/08/06 01:45:07;;;;;;;7.38;4.20;;;;;;;13.25;100.00;96010.03;4978037;28;20137;-69
2023/08/06 01:47:32;;;;;;;6.78;4.30;;;;;;;13.25;100.00;96005.31;4983001;28;20133;-68
2023/08/06 01:49:57;;;;;;;5.55;4.35;;;;;;;13.32;100.00;96005.28;4983061;28;20666;-68
2023/08/06 01:52:23;;;;;;;6.40;3.92;;;;;;;13.47;100.00;96011.50;4992526;28;20054;-68
2023/08/06 01:54:48;;;;;;;6.10;3.97;;;;;;;13.42;100.00;96020.19;4982798;28;20076;-68
2023/08/06 01:57:13;;;;;;;7.03;4.50;;;;;;;13.43;100.00;96009.97;4977714;28;20407;-69
2023/08/06 01:59:39;;;;;;;6.80;2.97;;;;;;;13.48;100.00;96004.81;4982987;28;20185;-68
2023/08/06 02:02:04;;;;;;;3.55;2.85;;;;;;;13.63;100.00;95993.72;4976298;28;20050;-67
2023/08/06 02:04:30;;;;;;;8.65;3.40;;;;;;;13.50;100.00;96001.66;4982661;28;20047;-67
2023/08/06 02:06:55;;;;;;;4.50;3.17;;;;;;;13.44;100.00;96008.78;4984675;28;20495;-68
2023/08/06 02:09:20;;;;;;;7.47;3.42;;;;;;;13.45;100.00;96002.88;4978072;28;20046;-68
2023/08/06 02:11:46;;;;;;;4.18;2.97;;;;;;;13.39;100.00;95998.97;4982859;28;20439;-68
2023/08/06 02:14:11;;;;;;;5.88;3.40;;;;;;;13.36;100.00;95994.28;4977491;28;20034;-67
2023/08/06 02:16:37;;;;;;;6.15;3.28;;;;;;;13.32;100.00;95988.00;4982314;28;20133;-67
2023/08/06 02:19:02;;;;;;;4.45;2.95;;;;;;;13.54;100.00;95992.22;4980734;28;20042;-69
2023/08/06 02:21:28;;;;;;;4.10;2.65;;;;;;;13.50;100.00;95991.44;4978810;28;20046;-69
2023/08/06 02:23:53;;;;;;;3.90;2.75;;;;;;;13.51;100.00;95989.47;4980823;28;20053;-68
2023/08/06 02:26:19;;;;;;;4.18;2.85;;;;;;;13.48;100.00;95974.56;4975695;28;20046;-68
2023/08/06 02:28:44;;;;;;;5.10;3.03;;;;;;;13.59;100.00;95971.72;4982981;28;20046;-68
2023/08/06 02:31:09;;;;;;;4.55;3.40;;;;;;;13.66;100.00;95968.16;4984865;28;20081;-68
2023/08/06 02:33:35;;;;;;;7.68;3.30;;;;;;;13.57;100.00;95966.63;5001519;28;20046;-69
2023/08/06 02:36:03;;;;;;;6.78;3.00;;;;;;;13.42;100.00;95973.44;5001017;28;20387;-69
2023/08/06 02:38:29;;;;;;;5.45;3.08;;;;;;;13.43;100.00;95969.47;5000498;28;20042;-68
2023/08/06 02:40:54;;;;;;;6.68;3.22;;;;;;;13.35;100.00;95974.25;5001585;28;20042;-68
2023/08/06 02:43:19;;;;;;;6.28;2.80;;;;;;;13.26;100.00;95962.88;4996423;28;20163;-68
2023/08/06 02:45:45;;;;;;;4.10;3.10;;;;;;;13.19;100.00;95966.44;5001479;28;20033;-68
2023/08/06 02:48:10;;;;;;;5.05;3.03;;;;;;;13.05;100.00;95961.03;4996816;28;20084;-68
2023/08/06 02:50:41;;;;;;;4.25;3.28;;;;;;;13.00;100.00;95950.47;5000479;28;20046;-67
2023/08/06 02:53:08;;;;;;;8.05;3.20;;;;;;;12.99;100.00;95946.91;4996437;28;20042;-67
2023/08/06 02:55:34;;;;;;;7.20;3.30;;;;;;;12.97;100.00;95951.25;5001225;28;20126;-67
2023/08/06 02:58:02;;;;;;;6.50;3.30;;;;;;;12.86;100.00;95950.53;4999698;28;20042;-68
2023/08/06 03:00:28;;;;;;;6.78;3.72;;;;;;;12.76;100.00;95941.91;4998176;28;20048;-68
2023/08/06 03:02:53;;;;;;;8.38;3.58;;;;;;;12.80;100.00;95945.47;5002301;28;20046;-69
2023/08/06 03:05:19;;;;;;;5.95;3.67;;;;;;;12.78;100.00;95947.03;4997329;28;20038;-70
2023/08/06 03:07:44;;;;;;;4.30;3.10;;;;;;;12.82;100.00;95939.56;5000684;28;20037;-68
2023/08/06 03:10:10;;;;;;;6.63;3.55;;;;;;;12.72;100.00;95943.91;5010905;28;20403;-70
2023/08/06 03:12:35;;;;;;;6.28;3.25;;;;;;;12.81;100.00;95940.75;4988116;28;20049;-69
2023/08/06 03:15:00;;;;;;;10.07;3.90;;;;;;;12.94;100.00;95930.06;4981017;28;20047;-69
2023/08/06 03:17:26;;;;;;;5.10;2.95;;;;;;;12.97;100.00;95934.78;4976545;28;20058;-69
2023/08/06 03:19:51;;;;;;;6.30;3.20;;;;;;;12.92;100.00;95922.22;4981575;28;20380;-70
2023/08/06 03:22:17;;;;;;;4.55;3.25;;;;;;;12.96;100.00;95927.69;4977112;28;20031;-69
2023/08/06 03:24:42;;;;;;;5.95;4.50;;;;;;;12.98;100.00;95933.56;4980649;28;20046;-69
2023/08/06 03:27:07;;;;;;;5.05;3.70;;;;;;;12.91;100.00;95934.41;4976700;28;20038;-68
2023/08/06 03:29:33;;;;;;;7.45;3.50;;;;;;;12.95;100.00;95934.41;4981355;28;20073;-69
2023/08/06 03:31:58;;;;;;;7.70;3.28;;;;;;;12.89;100.00;95938.72;4998439;28;20052;-69
2023/08/06 03:34:24;;;;;;;6.22;3.22;;;;;;;12.85;100.00;95929.72;4995777;28;20046;-69
2023/08/06 03:36:49;;;;;;;6.82;3.42;;;;;;;12.87;100.00;95932.84;5004227;28;20387;-69
2023/08/06 03:39:14;;;;;;;7.05;2.88;;;;;;;12.80;100.00;95941.91;5000127;28;20033;-68
2023/08/06 03:41:40;;;;;;;4.85;3.55;;;;;;;12.75;100.00;95934.88;5005069;28;20456;-69
2023/08/06 03:44:06;;;;;;;5.43;2.95;;;;;;;12.76;100.00;95941.16;4998863;28;20037;-66
2023/08/06 03:46:34;;;;;;;5.78;3.00;;;;;;;12.70;100.00;95935.28;5004683;28;20481;-68
2023/08/06 03:49:00;;;;;;;5.07;2.90;;;;;;;12.65;100.00;95932.94;5004657;28;20471;-66
2023/08/06 03:51:25;;;;;;;5.60;3.00;;;;;;;12.67;100.00;95927.84;4999192;28;20133;-67
2023/08/06 03:53:51;;;;;;;6.32;3.30;;;;;;;12.80;100.00;95939.97;5005090;28;20038;-67
2023/08/06 03:56:16;;;;;;;7.18;2.72;;;;;;;12.79;100.00;95932.13;4999943;28;20670;-68
2023/08/06 03:58:42;;;;;;;5.22;3.05;;;;;;;12.87;100.00;95935.59;5005064;28;20125;-68
2023/08/06 04:01:07;;;;;;;8.68;3.10;;;;;;;12.98;100.00;95939.88;4999842;28;20050;-68
2023/08/06 04:03:32;;;;;;;4.00;2.50;;;;;;;13.09;100.00;95930.75;5003982;28;20053;-68
2023/08/06 04:05:58;;;;;;;4.20;2.45;;;;;;;13.04;100.00;95944.97;5005335;28;20038;-69
2023/08/06 04:08:23;;;;;;;3.75;2.45;;;;;;;13.04;100.00;95942.97;4999866;28;20041;-68
2023/08/06 04:10:52;;;;;;;4.03;2.58;;;;;;;13.03;100.00;95941.41;5004926;28;20052;-67
2023/08/06 04:13:18;;;;;;;4.68;2.70;;;;;;;12.90;100.00;95941.06;4998592;28;20041;-68
2023/08/06 04:15:44;;;;;;;4.60;2.30;;;;;;;13.02;100.00;95942.59;5005028;28;20060;-68
2023/08/06 04:18:09;;;;;;;4.75;2.17;;;;;;;13.03;100.00;95941.41;4999724;28;20042;-68
2023/08/06 04:20:42;;;;;;;4.10;2.35;;;;;;;13.07;100.00;95939.44;4993467;28;20042;-67
2023/08/06 04:23:08;;;;;;;3.42;1.92;;;;;;;13.36;100.00;95945.56;4980181;28;20152;-67
2023/08/06 04:25:33;;;;;;;4.47;1.98;;;;;;;13.41;100.00;95940.81;4984987;28;20527;-68
2023/08/06 04:27:58;;;;;;;7.40;2.45;;;;;;;13.30;100.00;95935.34;4978227;28;20369;-68
2023/08/06 04:30:24;;;;;;;5.05;2.10;;;;;;;13.25;100.00;95941.28;4986454;28;20541;-67
2023/08/06 04:32:50;;;;;;;3.80;2.10;;;;;;;13.22;100.00;95944.81;4991706;28;20118;-68
2023/08/06 04:35:15;;;;;;;3.83;2.40;;;;;;;13.36;100.00;95940.06;4985266;28;20053;-68
2023/08/06 04:37:41;;;;;;;6.25;2.10;;;;;;;13.52;100.00;95947.03;5003840;28;20042;-67
2023/08/06 04:40:07;;;;;;;5.63;2.42;;;;;;;13.56;100.00;95939.53;4999305;28;20038;-68
2023/08/06 04:42:32;;;;;;;6.10;2.28;;;;;;;13.57;100.00;95938.34;5003796;28;20091;-67
2023/08/06 04:44:58;;;;;;;5.72;1.92;;;;;;;13.51;100.00;95931.72;5003638;28;20483;-67
2023/08/06 04:47:23;;;;;;;3.65;2.13;;;;;;;13.50;100.00;95939.16;4995615;28;20604;-67
2023/08/06 04:49:48;;;;;;;3.25;1.67;;;;;;;13.51;100.00;95939.97;5004649;28;20554;-67
2023/08/06 04:52:14;;;;;;;4.82;2.05;;;;;;;13.63;100.00;95938.69;4998756;28;20038;-67
2023/08/06 04:54:39;;;;;;;3.15;1.60;;;;;;;13.58;100.00;95942.66;5003809;28;20056;-66
2023/08/06 04:57:05;;;;;;;4.32;2.05;;;;;;;13.58;100.00;95942.66;4999574;28;20100;-67
2023/08/06 04:59:30;;;;;;;3.70;1.70;;;;;;;13.47;100.00;95947.44;5003999;28;20042;-69
2023/08/06 05:01:55;;;;;;;4.13;1.80;;;;;;;13.41;100.00;95947.09;5003406;28;20042;-69
2023/08/06 05:04:21;;;;;;;6.53;2.15;;;;;;;13.42;100.00;95970.66;4999508;28;20155;-68
2023/08/06 05:06:47;;;;;;;12.27;3.15;;;;;;;13.47;100.00;95966.69;5015385;28;20446;-70
2023/08/06 05:09:13;;;;;;;2.83;1.77;;;;;;;13.22;100.00;95972.31;5013820;28;20049;-68
2023/08/06 05:11:38;;;;;;;11.43;8.52;;;;;;;13.15;100.00;95976.69;5011807;28;20125;-69
2023/08/06 05:14:03;;;;;;;9.68;7.35;;;;;;;12.98;100.00;95983.06;5000683;28;20692;-69
2023/08/06 05:16:29;;;;;;;3.53;1.77;;;;;;;12.87;100.00;95987.81;5005399;28;20081;-69
2023/08/06 05:18:54;;;;;;;7.45;2.10;;;;;;;12.86;100.00;95984.28;5004867;28;20056;-69
2023/08/06 05:21:20;;;;;;;7.20;1.60;;;;;;;12.76;100.00;95985.88;4989430;28;20122;-69
2023/08/06 05:23:45;;;;;;;5.50;1.60;;;;;;;12.79;100.00;95985.09;4997831;28;20380;-68
2023/08/06 05:26:10;;;;;;;2.13;1.30;;;;;;;12.83;100.00;95985.09;4977982;28;20066;-68
2023/08/06 05:28:36;;;;;;;5.53;1.35;;;;;;;12.94;100.00;95980.31;4984011;28;20046;-68
2023/08/06 05:31:04;;;;;;;4.07;1.15;;;;;;;13.10;100.00;95988.09;4981837;28;20038;-68
2023/08/06 05:33:30;;;;;;;3.80;1.17;;;;;;;13.06;100.00;95992.84;4982117;28;20054;-68
2023/08/06 05:35:56;;;;;;;5.57;0.95;;;;;;;12.92;100.00;96007.41;4982682;28;20531;-69
2023/08/06 05:38:21;;;;;;;4.93;1.00;;;;;;;12.96;100.00;96005.47;4978874;28;20546;-68
2023/08/06 05:40:47;;;;;;;3.85;0.80;;;;;;;13.00;100.00;96011.72;4982974;28;20383;-68
2023/08/06 05:43:12;;;;;;;6.65;2.75;;;;;;;13.03;100.00;96006.59;4978338;28;20050;-68
2023/08/06 05:45:38;;;;;;;4.85;0.95;;;;;;;12.88;100.00;96011.38;4997863;28;20045;-68
2023/08/06 05:48:03;;;;;;;2.95;1.00;;;;;;;12.81;100.00;96017.69;4979571;28;20544;-68
2023/08/06 05:50:29;;;;;;;3.75;0.57;;;;;;;12.76;100.00;96004.34;4982136;28;20611;-68
2023/08/06 05:52:54;;;;;;;2.15;0.70;;;;;;;12.68;100.00;96000.84;4982897;28;20050;-68
2023/08/06 05:55:20;;;;;;;3.03;0.70;;;;;;;12.70;100.00;96003.19;4992582;28;20101;-68
2023/08/06 05:57:45;;;;;;;2.92;0.80;;;;;;;12.72;100.00;96006.31;4982852;28;20792;-67
2023/08/06 06:00:11;;;;;;;3.28;0.70;;;;;;;12.80;100.00;96013.34;4978269;28;20368;-68
2023/08/06 06:02:36;;;;;;;1.80;0.50;;;;;;;12.81;100.00;96007.47;4981445;28;20551;-68
2023/08/06 06:05:02;;;;;;;3.28;0.90;;;;;;;12.98;100.00;96016.84;4979103;28;20039;-67
2023/08/06 06:07:27;;;;;;;4.70;0.50;;;;;;;12.86;100.00;96014.53;4980415;28;20039;-67
2023/08/06 06:09:53;;;;;;;3.33;0.50;;;;;;;13.04;100.00;96008.19;4982827;28;20050;-67
2023/08/06 06:12:18;;;;;;;4.20;0.70;;;;;;;12.93;100.00;96022.75;4976311;28;20088;-67
2023/08/06 06:14:44;;;;;;;1.85;0.40;;;;;;;12.99;100.00;96023.09;4996435;28;20038;-67
2023/08/06 06:17:09;;;;;;;1.10;0.50;;;;;;;13.07;100.00;96013.66;4976060;28;20073;-67
2023/08/06 06:19:35;;;;;;;2.83;0.68;;;;;;;13.07;100.00;96021.91;4982994;28;20097;-67
2023/08/06 06:22:00;;;;;;;0.88;0.40;;;;;;;13.03;100.00;96026.63;4981269;28;20046;-67
2023/08/06 06:24:25;;;;;;;3.13;0.68;;;;;;;13.30;100.00;96017.84;4978244;28;20480;-67
2023/08/06 06:26:51;;;;;;;1.33;0.57;;;;;;;13.11;100.00;96016.41;4976400;28;20049;-67
2023/08/06 06:29:16;;;;;;;1.42;0.43;;;;;;;13.31;100.00;96033.22;4975669;28;20034;-67
2023/08/06 06:31:41;;;;;;;3.28;0.88;;;;;;;13.32;100.00;96023.78;4982516;28;20488;-67
2023/08/06 06:34:07;;;;;;;3.35;0.60;;;;;;;13.41;100.00;96020.59;4978590;28;20464;-67
2023/08/06 06:36:32;;;;;;;4.25;0.55;;;;;;;14.65;100.00;96031.81;4981933;28;20122;-66
2023/08/06 06:38:57;;;;;;;4.05;0.52;;;;;;;15.47;100.00;96030.06;4981320;28;20034;-69
2023/08/06 06:41:23;;;;;;;3.60;0.40;;;;;;;16.09;100.00;96038.25;4995435;28;20072;-68
2023/08/06 06:43:49;;;;;;;4.85;0.50;;;;;;;16.43;100.00;96049.13;5001403;28;20141;-67
2023/08/06 06:46:14;;;;;;;3.85;0.50;;;;;;;16.37;100.00;96050.81;4996497;28;20133;-69
2023/08/06 06:48:40;;;;;;;1.67;0.50;;;;;;;15.77;100.00;96055.31;5002137;28;20045;-68
2023/08/06 06:51:05;;;;;;;2.70;0.80;;;;;;;15.13;100.00;96056.91;4998106;28;20517;-68
2023/08/06 06:53:30;;;;;;;14.20;6.38;;;;;;;14.78;100.00;96061.59;5000298;28;20539;-68
2023/08/06 06:56:01;;;;;;;3.97;1.15;;;;;;;14.70;100.00;96058.94;5002697;28;20038;-67
2023/08/06 06:58:26;;;;;;;3.42;0.77;;;;;;;14.72;100.00;96059.28;4997958;28;20050;-68
2023/08/06 07:00:51;;;;;;;3.03;0.70;;;;;;;14.47;100.00;96059.50;5001712;28;20042;-67
2023/08/06 07:03:18;;;;;;;3.13;0.70;;;;;;;14.50;100.00;96068.94;4996207;28;20037;-67
2023/08/06 07:05:44;;;;;;;2.65;0.52;;;;;;;14.79;100.00;96069.47;5000831;28;20124;-68
2023/08/06 07:08:09;;;;;;;3.92;0.57;;;;;;;14.58;100.00;96070.47;4995911;28;20076;-68
2023/08/06 07:10:35;;;;;;;4.95;0.63;;;;;;;14.86;100.00;96065.88;5000943;28;20507;-67
2023/08/06 07:13:00;;;;;;;2.65;0.60;;;;;;;15.02;100.00;96068.06;5000538;28;20077;-69
2023/08/06 07:15:26;;;;;;;2.33;0.70;;;;;;;15.58;100.00;96071.31;4995758;28;20137;-68
2023/08/06 07:17:51;;;;;;;3.38;0.55;;;;;;;16.18;100.00;96079.94;4999619;28;20038;-68
2023/08/06 07:20:17;;;;;;;4.18;0.50;;;;;;;15.26;100.00;96077.22;4991421;28;20049;-68
2023/08/06 07:22:43;;;;;;;2.45;0.45;;;;;;;14.81;100.00;96072.59;4982642;28;20070;-67
2023/08/06 07:25:09;;;;;;;1.38;0.45;;;;;;;14.51;100.00;96079.56;4990607;28;20567;-67
2023/08/06 07:27:34;;;;;;;1.83;0.50;;;;;;;14.46;100.00;96084.75;4981274;28;20141;-69
2023/08/06 07:30:00;;;;;;;3.53;0.80;;;;;;;14.34;100.00;96091.50;4981490;28;20042;-66
2023/08/06 07:32:27;;;;;;;2.83;0.50;;;;;;;14.78;100.00;96092.72;4974427;28;20050;-68
2023/08/06 07:34:56;;;;;;;2.42;0.70;;;;;;;14.66;100.00;96085.75;4982694;28;20045;-69
2023/08/06 07:37:22;;;;;;;8.35;1.05;;;;;;;14.52;100.00;96086.63;4950118;28;20062;-67
2023/08/06 07:39:56;;;;;;;7.70;0.52;;;;;;;14.46;100.00;96085.50;4981486;28;20038;-68
2023/08/06 07:42:22;;;;;;;2.70;0.60;;;;;;;14.15;100.00;96088.13;4976063;28;20041;-67
2023/08/06 07:44:55;;;;;;;2.30;0.52;;;;;;;14.01;100.00;96095.69;4988862;28;20121;-68
2023/08/06 07:47:21;;;;;;;2.92;0.50;;;;;;;13.93;100.00;96100.47;5011807;28;20495;-66
2023/08/06 07:49:46;;;;;;;3.05;0.60;;;;;;;13.98;100.00;96096.50;5001186;28;20100;-67
2023/08/06 07:52:12;;;;;;;0.93;0.50;;;;;;;14.03;100.00;96093.34;4995640;28;20124;-66
2023/08/06 07:54:37;;;;;;;0.77;0.35;;;;;;;13.91;100.00;96109.13;5001645;28;20038;-67
2023/08/06 07:57:03;;;;;;;1.95;0.60;;;;;;;14.08;100.00;96103.91;4998591;28;20044;-67
2023/08/06 07:59:28;;;;;;;2.58;0.52;;;;;;;13.71;100.00;96103.34;4999943;28;20069;-68
2023/08/06 08:01:54;;;;;;;1.80;0.50;;;;;;;13.66;100.00;96111.25;5000922;28;20038;-68
2023/08/06 08:04:20;;;;;;;3.63;0.77;;;;;;;13.64;100.00;96106.13;4995894;28;20049;-68
2023/08/06 08:06:46;;;;;;;2.30;0.50;;;;;;;13.50;100.00;96108.94;5003363;28;20053;-68
2023/08/06 08:09:13;;;;;;;2.20;0.73;;;;;;;13.60;100.00;96104.59;5001647;28;20046;-66
2023/08/06 08:11:39;;;;;;;2.33;0.50;;;;;;;13.46;100.00;96108.19;5005378;28;20069;-69
2023/08/06 08:14:04;;;;;;;4.70;0.90;;;;;;;13.41;100.00;96105.84;4999804;28;20051;-68
2023/08/06 08:16:29;;;;;;;1.42;0.65;;;;;;;13.45;100.00;96112.13;5001185;28;20072;-69
2023/08/06 08:18:55;;;;;;;2.45;0.50;;;;;;;13.54;100.00;96106.97;5001451;28;20172;-66
2023/08/06 08:21:20;;;;;;;1.13;0.40;;;;;;;13.42;100.00;96099.19;4975671;28;20042;-67
2023/08/06 08:23:46;;;;;;;3.80;1.02;;;;;;;13.21;100.00;96111.78;5001656;28;20049;-67
2023/08/06 08:26:11;;;;;;;2.90;0.60;;;;;;;13.14;100.00;96109.88;4996807;28;20038;-67
2023/08/06 08:28:36;;;;;;;1.67;0.50;;;;;;;13.32;100.00;96115.31;5001638;28;20046;-66
2023/08/06 08:31:02;;;;;;;1.25;0.50;;;;;;;13.23;100.00;96106.66;4995124;28;20046;-68
2023/08/06 08:33:27;;;;;;;3.03;0.55;;;;;;;13.08;100.00;96105.16;4993661;28;20050;-70
2023/08/06 08:35:52;;;;;;;2.85;0.88;;;;;;;13.19;100.00;96114.94;5019520;28;20042;-69
2023/08/06 08:38:18;;;;;;;1.48;0.40;;;;;;;13.25;100.00;96104.28;4997597;28;20053;-67
2023/08/06 08:40:49;;;;;;;3.95;0.73;;;;;;;13.26;100.00;96116.09;4999567;28;20035;-67
2023/08/06 08:43:15;;;;;;;1.15;0.50;;;;;;;13.19;100.00;96106.69;4996148;28;20092;-68
2023/08/06 08:45:43;;;;;;;5.35;0.70;;;;;;;13.19;100.00;96123.19;5007122;28;20042;-68
2023/08/06 08:48:12;;;;;;;4.20;0.77;;;;;;;13.11;100.00;96126.38;5026688;28;20045;-68
2023/08/06 08:50:38;;;;;;;2.95;1.10;;;;;;;12.93;100.00;96113.44;5011822;28;20108;-70
2023/08/06 08:53:05;;;;;;;2.50;0.75;;;;;;;12.82;100.00;96121.72;5003598;28;20503;-69
2023/08/06 08:55:32;;;;;;;4.55;0.73;;;;;;;12.94;100.00;96123.25;5021894;28;20049;-67
2023/08/06 08:57:57;;;;;;;4.13;0.60;;;;;;;12.98;100.00;96124.03;5004008;28;20533;-68
2023/08/06 09:00:23;;;;;;;1.15;0.55;;;;;;;12.99;100.00;96135.81;4997099;28;20081;-68
2023/08/06 09:02:49;;;;;;;1.60;0.40;;;;;;;13.18;100.00;96126.31;5004880;28;20038;-69
2023/08/06 09:05:15;;;;;;;2.78;0.68;;;;;;;13.19;100.00;96131.44;4999681;28;20672;-69
2023/08/06 09:07:48;;;;;;;1.33;0.43;;;;;;;13.42;100.00;96129.44;5004697;28;20046;-68
2023/08/06 09:10:17;;;;;;;2.03;0.60;;;;;;;13.29;100.00;96129.03;4991273;28;20065;-68
2023/08/06 09:12:44;;;;;;;0.47;0.40;;;;;;;13.37;100.00;96125.91;5004870;28;20069;-68
2023/08/06 09:15:10;;;;;;;1.95;0.70;;;;;;;13.54;100.00;96142.72;5000274;28;20553;-69
2023/08/06 09:17:36;;;;;;;3.00;0.40;;;;;;;13.69;100.00;96146.22;5004812;28;20041;-68
2023/08/06 09:20:12;;;;;;;1.88;0.52;;;;;;;13.39;100.00;96153.78;5001161;28;20042;-69
2023/08/06 09:22:38;;;;;;;1.20;0.50;;;;;;;13.35;100.00;96152.25;4981490;28;20054;-69
2023/08/06 09:25:09;;;;;;;0.98;0.55;;;;;;;13.25;100.00;96148.28;4955417;28;20066;-68
2023/08/06 09:27:36;;;;;;;1.00;0.40;;;;;;;13.06;100.00;96159.75;4989346;28;20133;-69
2023/08/06 09:30:07;;;;;;;2.45;0.60;;;;;;;13.33;100.00;96171.09;4991525;28;20042;-68
2023/08/06 09:32:51;;;;;;;3.97;1.20;;;;;;;13.14;100.00;96166.78;4988884;28;20129;-68
2023/08/06 09:35:19;;;;;;;2.25;0.50;;;;;;;13.11;100.00;96164.88;4982347;28;20042;-67
2023/08/06 09:37:45;;;;;;;1.20;0.45;;;;;;;13.12;100.00;96161.69;4988108;28;20039;-67
2023/08/06 09:40:30;;;;;;;0.95;0.45;;;;;;;12.95;100.00;96163.31;4980729;28;20108;-67
2023/08/06 09:42:59;;;;;;;0.95;0.73;;;;;;;13.18;100.00;96173.06;4948526;28;20053;-69
2023/08/06 09:45:32;;;;;;;1.70;0.60;;;;;;;13.23;100.00;96163.63;4961393;28;20601;-69
2023/08/06 09:47:59;;;;;;;0.52;0.30;;;;;;;13.29;100.00;96173.03;4984422;28;20034;-68
2023/08/06 09:50:35;;;;;;;1.80;0.50;;;;;;;13.29;100.00;96170.28;4981834;28;20043;-68
2023/08/06 09:53:01;;;;;;;2.38;0.50;;;;;;;13.29;100.00;96165.59;4990125;28;20042;-70
2023/08/06 09:55:27;;;;;;;2.83;0.32;;;;;;;13.34;100.00;96178.97;4979779;28;20118;-68
2023/08/06 09:57:53;;;;;;;0.63;0.30;;;;;;;13.56;100.00;96170.66;4982007;28;20143;-67
2023/08/06 10:00:19;;;;;;;1.55;0.40;;;;;;;13.46;100.00;96185.22;4970401;28;20454;-67
2023/08/06 10:02:45;;;;;;;0.50;0.30;;;;;;;13.59;100.00;96172.56;4983117;28;20132;-67
2023/08/06 10:05:11;;;;;;;0.57;0.30;;;;;;;13.70;100.00;96167.84;4983344;28;20109;-68
2023/08/06 10:07:39;;;;;;;2.00;0.68;;;;;;;13.89;100.00;96180.31;4985010;28;20038;-67
2023/08/06 10:10:06;;;;;;;12.70;4.25;;;;;;;13.70;100.00;96173.34;4980617;28;20403;-67
2023/08/06 10:12:35;;;;;;;0.85;0.40;;;;;;;13.60;100.00;96176.13;4982536;28;20046;-67
2023/08/06 10:15:09;;;;;;;0.47;0.40;;;;;;;13.71;100.00;96171.38;4983194;28;20202;-67
2023/08/06 10:17:36;;;;;;;0.70;0.40;;;;;;;14.13;100.00;96181.38;4981920;28;20492;-67
2023/08/06 10:20:06;;;;;;;0.32;0.30;;;;;;;14.29;100.00;96175.34;4996372;28;20077;-69
2023/08/06 10:22:33;;;;;;;0.52;0.30;;;;;;;14.52;100.00;96174.03;4976651;28;20042;-67
2023/08/06 10:25:06;;;;;;;1.75;0.30;;;;;;;15.17;100.00;96177.03;4983439;28;20138;-67
2023/08/06 10:27:38;;;;;;;1.13;0.40;;;;;;;15.62;100.00;96171.41;4973111;28;20042;-67
2023/08/06 10:30:28;;;;;;;2.38;1.30;;;;;;;16.18;100.00;96162.81;4974440;28;20046;-67
2023/08/06 10:32:57;;;;;;;0.38;0.32;;;;;;;16.03;100.00;96173.28;4982468;28;20611;-67
2023/08/06 10:35:29;;;;;;;0.85;0.30;;;;;;;16.22;100.00;96179.34;4978424;28;20050;-67
2023/08/06 10:37:58;;;;;;;1.45;0.40;;;;;;;16.33;100.00;96170.91;4983745;28;20042;-67
2023/08/06 10:40:25;;;;;;;1.17;0.30;;;;;;;16.08;100.00;96172.06;4981281;28;20531;-66
2023/08/06 10:42:51;;;;;;;0.30;0.17;;;;;;;15.80;100.00;96175.97;4982860;28;20498;-66
2023/08/06 10:45:18;;;;;;;0.10;0.10;;;;;;;15.10;100.00;96177.09;4961091;28;20147;-66
2023/08/06 10:47:45;;;;;;;0.98;0.30;;;;;;;14.73;100.00;96175.88;5003468;28;20105;-66
2023/08/06 10:50:17;;;;;;;0.55;0.30;;;;;;;14.66;100.00;96179.47;4998616;28;20041;-67
2023/08/06 10:52:46;;;;;;;2.25;0.30;;;;;;;14.58;100.00;96177.16;5002613;28;20499;-67
2023/08/06 10:55:12;;;;;;;1.38;0.40;;;;;;;14.77;100.00;96182.13;4998050;28;20060;-67
2023/08/06 10:57:38;;;;;;;0.75;0.20;;;;;;;14.85;100.00;96177.31;5002879;28;20479;-67
2023/08/06 11:00:08;;;;;;;1.35;0.50;;;;;;;14.60;100.00;96180.28;5000771;28;20092;-67
2023/08/06 11:02:37;;;;;;;1.13;0.30;;;;;;;14.56;100.00;96169.25;5003293;28;20042;-66
2023/08/06 11:05:07;;;;;;;0.25;0.20;;;;;;;14.77;100.00;96176.63;5000994;28;20058;-68
2023/08/06 11:07:34;;;;;;;0.73;0.32;;;;;;;15.21;100.00;96171.47;5003927;28;20050;-67
2023/08/06 11:10:08;;;;;;;0.57;0.30;;;;;;;15.20;100.00;96178.19;4982933;28;20042;-67
2023/08/06 11:12:34;;;;;;;0.88;0.30;;;;;;;15.70;100.00;96169.34;5002405;28;20042;-66
2023/08/06 11:15:01;;;;;;;0.70;0.20;;;;;;;15.72;100.00;96191.81;5001341;28;20041;-66
2023/08/06 11:17:32;;;;;;;1.55;0.45;;;;;;;16.48;100.00;96185.31;4997337;28;20038;-67
2023/08/06 11:20:01;;;;;;;1.27;0.50;;;;;;;17.03;100.00;96191.53;5002444;28;20120;-68
2023/08/06 11:22:27;;;;;;;;;;;;;;;17.29;100.00;96199.00;4986900;28;20559;-67